sensor_id;sensor_type;location;lat;lon;timestamp;P1;durP1;ratioP1;P2;durP2;ratioP2
76373;SDS011;65197;50.164;8.012;2023-09-19T00:02:08;5.70;;;3.60;;
76373;SDS011;65197;50.164;8.012;2023-09-19T00:04:33;6.15;;;3.63;;
76373;SDS011;65197;50.164;8.012;2023-09-19T00:06:59;6.07;;;3.50;;
76373;SDS011;65197;50.164;8.012;2023-09-19T00:09:27;4.45;;;3.30;;
76373;SDS011;65197;50.164;8.012;2023-09-19T00:11:52;4.65;;;3.67;;
76373;SDS011;65197;50.164;8.012;2023-09-19T00:14:18;7.00;;;4.22;;
76373;SDS011;65197;50.164;8.012;2023-09-19T00:16:43;5.47;;;3.53;;
76373;SDS011;65197;50.164;8.012;2023-09-19T00:19:09;6.53;;;3.72;;
76373;SDS011;65197;50.164;8.012;2023-09-19T00:21:34;6.63;;;4.45;;
76373;SDS011;65197;50.164;8.012;2023-09-19T00:24:02;5.43;;;3.90;;
76373;SDS011;65197;50.164;8.012;2023-09-19T00:26:29;6.57;;;4.22;;
76373;SDS011;65197;50.164;8.012;2023-09-19T00:28:57;6.40;;;3.90;;
76373;SDS011;65197;50.164;8.012;2023-09-19T00:31:24;6.88;;;3.92;;
76373;SDS011;65197;50.164;8.012;2023-09-19T00:33:50;8.35;;;4.15;;
76373;SDS011;65197;50.164;8.012;2023-09-19T00:36:16;7.93;;;3.85;;
76373;SDS011;65197;50.164;8.012;2023-09-19T00:38:43;8.60;;;4.00;;
76373;SDS011;65197;50.164;8.012;2023-09-19T00:41:10;6.40;;;3.58;;
76373;SDS011;65197;50.164;8.012;2023-09-19T00:43:37;7.45;;;4.18;;
76373;SDS011;65197;50.164;8.012;2023-09-19T00:46:04;7.20;;;4.28;;
76373;SDS011;65197;50.164;8.012;2023-09-19T00:48:31;5.82;;;3.95;;
76373;SDS011;65197;50.164;8.012;2023-09-19T00:50:57;8.80;;;3.95;;
76373;SDS011;65197;50.164;8.012;2023-09-19T00:53:27;5.38;;;3.63;;
76373;SDS011;65197;50.164;8.012;2023-09-19T00:55:52;7.05;;;4.50;;
76373;SDS011;65197;50.164;8.012;2023-09-19T00:58:18;5.65;;;3.58;;
76373;SDS011;65197;50.164;8.012;2023-09-19T01:00:43;6.88;;;4.43;;
76373;SDS011;65197;50.164;8.012;2023-09-19T01:03:10;7.63;;;4.50;;
76373;SDS011;65197;50.164;8.012;2023-09-19T01:05:35;4.15;;;3.22;;
76373;SDS011;65197;50.164;8.012;2023-09-19T01:08:01;5.72;;;3.55;;
76373;SDS011;65197;50.164;8.012;2023-09-19T01:10:27;5.88;;;3.78;;
76373;SDS011;65197;50.164;8.012;2023-09-19T01:13:01;5.93;;;3.80;;
76373;SDS011;65197;50.164;8.012;2023-09-19T01:24:04;6.32;;;4.35;;
76373;SDS011;65197;50.164;8.012;2023-09-19T01:26:56;5.82;;;3.90;;
76373;SDS011;65197;50.164;8.012;2023-09-19T01:29:45;6.32;;;3.90;;
76373;SDS011;65197;50.164;8.012;2023-09-19T01:32:13;9.60;;;3.85;;
76373;SDS011;65197;50.164;8.012;2023-09-19T01:34:49;6.07;;;4.13;;
76373;SDS011;65197;50.164;8.012;2023-09-19T01:37:16;7.13;;;3.95;;
76373;SDS011;65197;50.164;8.012;2023-09-19T01:39:49;10.50;;;4.20;;
76373;SDS011;65197;50.164;8.012;2023-09-19T01:45:10;7.10;;;3.38;;
76373;SDS011;65197;50.164;8.012;2023-09-19T01:47:41;5.70;;;3.22;;
76373;SDS011;65197;50.164;8.012;2023-09-19T01:55:30;6.15;;;3.42;;
76373;SDS011;65197;50.164;8.012;2023-09-19T02:00:41;6.78;;;3.33;;
76373;SDS011;65197;50.164;8.012;2023-09-19T02:03:08;6.50;;;3.15;;
76373;SDS011;65197;50.164;8.012;2023-09-19T02:05:34;7.80;;;2.90;;
76373;SDS011;65197;50.164;8.012;2023-09-19T02:07:59;8.93;;;2.95;;
76373;SDS011;65197;50.164;8.012;2023-09-19T02:10:25;4.78;;;2.45;;
76373;SDS011;65197;50.164;8.012;2023-09-19T02:12:51;5.07;;;2.80;;
76373;SDS011;65197;50.164;8.012;2023-09-19T02:15:16;3.80;;;2.75;;
76373;SDS011;65197;50.164;8.012;2023-09-19T02:17:44;4.00;;;2.50;;
76373;SDS011;65197;50.164;8.012;2023-09-19T02:20:11;6.05;;;2.78;;
76373;SDS011;65197;50.164;8.012;2023-09-19T02:22:40;5.53;;;2.85;;
76373;SDS011;65197;50.164;8.012;2023-09-19T02:25:08;5.93;;;2.60;;
76373;SDS011;65197;50.164;8.012;2023-09-19T02:27:34;3.92;;;2.50;;
76373;SDS011;65197;50.164;8.012;2023-09-19T02:29:59;7.35;;;2.67;;
76373;SDS011;65197;50.164;8.012;2023-09-19T02:32:28;5.15;;;3.25;;
76373;SDS011;65197;50.164;8.012;2023-09-19T02:34:55;6.32;;;2.70;;
76373;SDS011;65197;50.164;8.012;2023-09-19T02:37:21;4.93;;;2.72;;
76373;SDS011;65197;50.164;8.012;2023-09-19T02:39:46;4.63;;;2.35;;
76373;SDS011;65197;50.164;8.012;2023-09-19T02:42:12;5.28;;;2.30;;
76373;SDS011;65197;50.164;8.012;2023-09-19T02:44:37;4.20;;;2.15;;
76373;SDS011;65197;50.164;8.012;2023-09-19T02:47:03;4.60;;;2.78;;
76373;SDS011;65197;50.164;8.012;2023-09-19T02:49:28;6.20;;;2.38;;
76373;SDS011;65197;50.164;8.012;2023-09-19T02:51:54;5.50;;;3.22;;
76373;SDS011;65197;50.164;8.012;2023-09-19T02:54:19;4.88;;;2.50;;
76373;SDS011;65197;50.164;8.012;2023-09-19T02:56:45;4.47;;;2.53;;
76373;SDS011;65197;50.164;8.012;2023-09-19T02:59:12;5.25;;;2.45;;
76373;SDS011;65197;50.164;8.012;2023-09-19T03:01:38;4.05;;;2.22;;
76373;SDS011;65197;50.164;8.012;2023-09-19T03:04:04;4.80;;;2.80;;
76373;SDS011;65197;50.164;8.012;2023-09-19T03:06:31;4.22;;;2.45;;
76373;SDS011;65197;50.164;8.012;2023-09-19T03:08:56;5.38;;;2.50;;
76373;SDS011;65197;50.164;8.012;2023-09-19T03:11:24;4.38;;;2.78;;
76373;SDS011;65197;50.164;8.012;2023-09-19T03:13:51;4.55;;;2.90;;
76373;SDS011;65197;50.164;8.012;2023-09-19T03:16:17;8.55;;;3.30;;
76373;SDS011;65197;50.164;8.012;2023-09-19T03:18:44;5.18;;;2.83;;
76373;SDS011;65197;50.164;8.012;2023-09-19T03:21:10;4.93;;;3.00;;
76373;SDS011;65197;50.164;8.012;2023-09-19T03:23:35;8.15;;;3.47;;
76373;SDS011;65197;50.164;8.012;2023-09-19T03:26:01;8.00;;;2.97;;
76373;SDS011;65197;50.164;8.012;2023-09-19T03:28:26;6.05;;;3.00;;
76373;SDS011;65197;50.164;8.012;2023-09-19T03:31:02;4.88;;;2.90;;
76373;SDS011;65197;50.164;8.012;2023-09-19T03:33:29;6.15;;;3.38;;
76373;SDS011;65197;50.164;8.012;2023-09-19T03:35:58;6.70;;;3.75;;
76373;SDS011;65197;50.164;8.012;2023-09-19T03:38:26;5.05;;;2.72;;
76373;SDS011;65197;50.164;8.012;2023-09-19T03:40:52;7.15;;;3.15;;
76373;SDS011;65197;50.164;8.012;2023-09-19T03:43:17;7.22;;;3.13;;
76373;SDS011;65197;50.164;8.012;2023-09-19T03:45:42;6.10;;;3.30;;
76373;SDS011;65197;50.164;8.012;2023-09-19T03:48:11;5.55;;;3.42;;
76373;SDS011;65197;50.164;8.012;2023-09-19T03:50:36;6.38;;;3.55;;
76373;SDS011;65197;50.164;8.012;2023-09-19T03:53:02;7.25;;;3.45;;
76373;SDS011;65197;50.164;8.012;2023-09-19T03:55:27;5.50;;;3.60;;
76373;SDS011;65197;50.164;8.012;2023-09-19T03:57:55;5.90;;;3.53;;
76373;SDS011;65197;50.164;8.012;2023-09-19T04:00:20;7.03;;;3.50;;
76373;SDS011;65197;50.164;8.012;2023-09-19T04:02:48;4.38;;;3.08;;
76373;SDS011;65197;50.164;8.012;2023-09-19T04:05:14;6.32;;;3.50;;
76373;SDS011;65197;50.164;8.012;2023-09-19T04:07:39;9.00;;;3.47;;
76373;SDS011;65197;50.164;8.012;2023-09-19T04:10:05;6.35;;;3.67;;
76373;SDS011;65197;50.164;8.012;2023-09-19T04:14:58;8.00;;;3.57;;
76373;SDS011;65197;50.164;8.012;2023-09-19T04:17:24;6.55;;;3.70;;
76373;SDS011;65197;50.164;8.012;2023-09-19T04:19:49;6.75;;;3.83;;
76373;SDS011;65197;50.164;8.012;2023-09-19T04:22:15;8.00;;;3.75;;
76373;SDS011;65197;50.164;8.012;2023-09-19T04:24:40;8.30;;;3.67;;
76373;SDS011;65197;50.164;8.012;2023-09-19T04:27:06;4.72;;;3.53;;
76373;SDS011;65197;50.164;8.012;2023-09-19T04:29:32;6.10;;;3.30;;
76373;SDS011;65197;50.164;8.012;2023-09-19T04:31:57;6.47;;;3.53;;
76373;SDS011;65197;50.164;8.012;2023-09-19T04:34:23;8.00;;;3.72;;
76373;SDS011;65197;50.164;8.012;2023-09-19T04:36:49;5.70;;;3.30;;
76373;SDS011;65197;50.164;8.012;2023-09-19T04:39:14;5.40;;;3.58;;
76373;SDS011;65197;50.164;8.012;2023-09-19T04:41:40;5.88;;;3.40;;
76373;SDS011;65197;50.164;8.012;2023-09-19T04:44:06;6.68;;;3.47;;
76373;SDS011;65197;50.164;8.012;2023-09-19T04:46:32;7.47;;;4.20;;
76373;SDS011;65197;50.164;8.012;2023-09-19T04:48:58;6.57;;;3.47;;
76373;SDS011;65197;50.164;8.012;2023-09-19T04:51:24;6.88;;;3.80;;
76373;SDS011;65197;50.164;8.012;2023-09-19T04:53:50;6.30;;;3.50;;
76373;SDS011;65197;50.164;8.012;2023-09-19T04:56:16;10.40;;;3.40;;
76373;SDS011;65197;50.164;8.012;2023-09-19T04:58:41;8.57;;;3.75;;
76373;SDS011;65197;50.164;8.012;2023-09-19T05:01:07;6.75;;;4.35;;
76373;SDS011;65197;50.164;8.012;2023-09-19T05:03:36;7.05;;;3.13;;
76373;SDS011;65197;50.164;8.012;2023-09-19T05:06:02;5.30;;;3.00;;
76373;SDS011;65197;50.164;8.012;2023-09-19T05:08:27;5.75;;;3.60;;
76373;SDS011;65197;50.164;8.012;2023-09-19T05:10:53;5.97;;;2.92;;
76373;SDS011;65197;50.164;8.012;2023-09-19T05:13:18;7.68;;;3.20;;
76373;SDS011;65197;50.164;8.012;2023-09-19T05:15:43;5.28;;;3.35;;
76373;SDS011;65197;50.164;8.012;2023-09-19T05:18:09;7.70;;;3.97;;
76373;SDS011;65197;50.164;8.012;2023-09-19T05:20:35;6.10;;;3.45;;
76373;SDS011;65197;50.164;8.012;2023-09-19T05:23:03;7.18;;;3.88;;
76373;SDS011;65197;50.164;8.012;2023-09-19T05:25:37;6.50;;;3.83;;
76373;SDS011;65197;50.164;8.012;2023-09-19T05:28:07;8.20;;;3.80;;
76373;SDS011;65197;50.164;8.012;2023-09-19T05:30:34;5.95;;;3.50;;
76373;SDS011;65197;50.164;8.012;2023-09-19T05:33:01;5.80;;;3.58;;
76373;SDS011;65197;50.164;8.012;2023-09-19T05:35:27;6.40;;;3.92;;
76373;SDS011;65197;50.164;8.012;2023-09-19T05:37:53;7.70;;;4.00;;
76373;SDS011;65197;50.164;8.012;2023-09-19T05:40:20;6.40;;;3.70;;
76373;SDS011;65197;50.164;8.012;2023-09-19T05:42:46;9.00;;;4.00;;
76373;SDS011;65197;50.164;8.012;2023-09-19T05:45:12;6.78;;;4.05;;
76373;SDS011;65197;50.164;8.012;2023-09-19T05:47:39;8.00;;;4.35;;
76373;SDS011;65197;50.164;8.012;2023-09-19T05:50:08;8.18;;;3.95;;
76373;SDS011;65197;50.164;8.012;2023-09-19T05:52:34;7.35;;;4.15;;
76373;SDS011;65197;50.164;8.012;2023-09-19T05:55:00;7.10;;;3.78;;
76373;SDS011;65197;50.164;8.012;2023-09-19T05:57:25;5.78;;;3.55;;
76373;SDS011;65197;50.164;8.012;2023-09-19T05:59:52;7.63;;;3.70;;
76373;SDS011;65197;50.164;8.012;2023-09-19T06:02:18;5.55;;;3.45;;
76373;SDS011;65197;50.164;8.012;2023-09-19T06:04:44;5.55;;;3.55;;
76373;SDS011;65197;50.164;8.012;2023-09-19T06:07:10;5.97;;;3.08;;
76373;SDS011;65197;50.164;8.012;2023-09-19T06:09:37;6.05;;;3.35;;
76373;SDS011;65197;50.164;8.012;2023-09-19T06:12:02;7.03;;;2.97;;
76373;SDS011;65197;50.164;8.012;2023-09-19T06:14:29;4.70;;;3.20;;
76373;SDS011;65197;50.164;8.012;2023-09-19T06:16:55;4.90;;;3.33;;
76373;SDS011;65197;50.164;8.012;2023-09-19T06:19:21;6.43;;;3.33;;
76373;SDS011;65197;50.164;8.012;2023-09-19T06:21:47;6.78;;;2.88;;
76373;SDS011;65197;50.164;8.012;2023-09-19T06:24:13;7.50;;;3.25;;
76373;SDS011;65197;50.164;8.012;2023-09-19T06:26:38;6.28;;;3.22;;
76373;SDS011;65197;50.164;8.012;2023-09-19T06:29:04;5.80;;;3.63;;
76373;SDS011;65197;50.164;8.012;2023-09-19T06:31:32;4.90;;;3.03;;
76373;SDS011;65197;50.164;8.012;2023-09-19T06:33:58;6.03;;;3.67;;
76373;SDS011;65197;50.164;8.012;2023-09-19T06:36:23;5.57;;;3.17;;
76373;SDS011;65197;50.164;8.012;2023-09-19T06:38:49;5.10;;;3.35;;
76373;SDS011;65197;50.164;8.012;2023-09-19T06:41:16;6.25;;;3.20;;
76373;SDS011;65197;50.164;8.012;2023-09-19T06:43:42;4.90;;;3.30;;
76373;SDS011;65197;50.164;8.012;2023-09-19T06:46:07;4.50;;;2.83;;
76373;SDS011;65197;50.164;8.012;2023-09-19T06:48:33;4.68;;;2.80;;
76373;SDS011;65197;50.164;8.012;2023-09-19T06:50:59;5.15;;;3.10;;
76373;SDS011;65197;50.164;8.012;2023-09-19T06:53:30;7.38;;;3.00;;
76373;SDS011;65197;50.164;8.012;2023-09-19T06:55:59;4.15;;;2.47;;
76373;SDS011;65197;50.164;8.012;2023-09-19T06:58:25;5.63;;;2.60;;
76373;SDS011;65197;50.164;8.012;2023-09-19T07:00:50;4.75;;;2.60;;
76373;SDS011;65197;50.164;8.012;2023-09-19T07:03:16;6.07;;;2.45;;
76373;SDS011;65197;50.164;8.012;2023-09-19T07:05:43;6.38;;;2.45;;
76373;SDS011;65197;50.164;8.012;2023-09-19T07:08:09;6.82;;;2.45;;
76373;SDS011;65197;50.164;8.012;2023-09-19T07:10:38;5.13;;;2.58;;
76373;SDS011;65197;50.164;8.012;2023-09-19T07:13:06;4.00;;;2.13;;
76373;SDS011;65197;50.164;8.012;2023-09-19T07:15:35;4.00;;;2.42;;
76373;SDS011;65197;50.164;8.012;2023-09-19T07:18:04;3.67;;;2.40;;
76373;SDS011;65197;50.164;8.012;2023-09-19T07:20:31;6.35;;;2.65;;
76373;SDS011;65197;50.164;8.012;2023-09-19T07:23:00;6.55;;;2.72;;
76373;SDS011;65197;50.164;8.012;2023-09-19T07:25:29;7.57;;;2.55;;
76373;SDS011;65197;50.164;8.012;2023-09-19T07:27:55;4.20;;;2.22;;
76373;SDS011;65197;50.164;8.012;2023-09-19T07:30:21;5.40;;;2.28;;
76373;SDS011;65197;50.164;8.012;2023-09-19T07:32:47;5.57;;;2.50;;
76373;SDS011;65197;50.164;8.012;2023-09-19T07:35:12;6.47;;;2.30;;
76373;SDS011;65197;50.164;8.012;2023-09-19T07:37:38;4.68;;;2.70;;
76373;SDS011;65197;50.164;8.012;2023-09-19T07:40:04;5.63;;;2.40;;
76373;SDS011;65197;50.164;8.012;2023-09-19T07:42:32;4.45;;;2.33;;
76373;SDS011;65197;50.164;8.012;2023-09-19T07:45:00;6.68;;;2.50;;
76373;SDS011;65197;50.164;8.012;2023-09-19T07:47:26;6.75;;;2.17;;
76373;SDS011;65197;50.164;8.012;2023-09-19T07:49:52;5.43;;;2.50;;
76373;SDS011;65197;50.164;8.012;2023-09-19T07:52:18;6.25;;;1.83;;
76373;SDS011;65197;50.164;8.012;2023-09-19T07:54:44;11.18;;;3.50;;
76373;SDS011;65197;50.164;8.012;2023-09-19T07:57:10;5.32;;;2.35;;
76373;SDS011;65197;50.164;8.012;2023-09-19T07:59:36;4.35;;;2.08;;
76373;SDS011;65197;50.164;8.012;2023-09-19T08:02:03;6.35;;;2.10;;
76373;SDS011;65197;50.164;8.012;2023-09-19T08:04:29;4.47;;;2.30;;
76373;SDS011;65197;50.164;8.012;2023-09-19T08:06:57;10.27;;;2.03;;
76373;SDS011;65197;50.164;8.012;2023-09-19T08:09:25;5.43;;;2.00;;
76373;SDS011;65197;50.164;8.012;2023-09-19T08:11:51;6.32;;;2.00;;
76373;SDS011;65197;50.164;8.012;2023-09-19T08:14:16;8.05;;;2.03;;
76373;SDS011;65197;50.164;8.012;2023-09-19T08:16:42;4.45;;;2.15;;
76373;SDS011;65197;50.164;8.012;2023-09-19T08:19:08;10.05;;;2.50;;
76373;SDS011;65197;50.164;8.012;2023-09-19T08:21:35;6.90;;;2.38;;
76373;SDS011;65197;50.164;8.012;2023-09-19T08:24:01;6.20;;;1.85;;
76373;SDS011;65197;50.164;8.012;2023-09-19T08:26:29;6.50;;;2.20;;
76373;SDS011;65197;50.164;8.012;2023-09-19T08:28:55;5.63;;;2.30;;
76373;SDS011;65197;50.164;8.012;2023-09-19T08:31:21;4.47;;;1.95;;
76373;SDS011;65197;50.164;8.012;2023-09-19T08:33:47;6.65;;;1.85;;
76373;SDS011;65197;50.164;8.012;2023-09-19T08:36:14;6.53;;;2.00;;
76373;SDS011;65197;50.164;8.012;2023-09-19T08:38:40;3.63;;;1.70;;
76373;SDS011;65197;50.164;8.012;2023-09-19T08:41:06;5.13;;;1.90;;
76373;SDS011;65197;50.164;8.012;2023-09-19T08:43:32;3.78;;;1.70;;
76373;SDS011;65197;50.164;8.012;2023-09-19T08:48:30;4.32;;;1.60;;
76373;SDS011;65197;50.164;8.012;2023-09-19T08:51:00;6.55;;;2.45;;
76373;SDS011;65197;50.164;8.012;2023-09-19T08:53:34;4.80;;;1.83;;
76373;SDS011;65197;50.164;8.012;2023-09-19T08:56:08;6.80;;;2.10;;
76373;SDS011;65197;50.164;8.012;2023-09-19T08:58:39;7.22;;;2.30;;
76373;SDS011;65197;50.164;8.012;2023-09-19T09:01:09;5.43;;;1.90;;
76373;SDS011;65197;50.164;8.012;2023-09-19T09:03:37;5.95;;;1.80;;
76373;SDS011;65197;50.164;8.012;2023-09-19T09:06:06;6.88;;;1.83;;
76373;SDS011;65197;50.164;8.012;2023-09-19T09:08:35;7.82;;;2.50;;
76373;SDS011;65197;50.164;8.012;2023-09-19T09:11:01;5.88;;;2.05;;
76373;SDS011;65197;50.164;8.012;2023-09-19T09:13:27;4.72;;;2.13;;
76373;SDS011;65197;50.164;8.012;2023-09-19T09:15:53;7.28;;;2.75;;
76373;SDS011;65197;50.164;8.012;2023-09-19T09:18:19;6.28;;;2.13;;
76373;SDS011;65197;50.164;8.012;2023-09-19T09:20:45;5.85;;;2.00;;
76373;SDS011;65197;50.164;8.012;2023-09-19T09:23:11;7.30;;;3.17;;
76373;SDS011;65197;50.164;8.012;2023-09-19T09:25:52;3.38;;;1.65;;
76373;SDS011;65197;50.164;8.012;2023-09-19T09:28:23;5.35;;;1.98;;
76373;SDS011;65197;50.164;8.012;2023-09-19T09:30:50;7.97;;;2.10;;
76373;SDS011;65197;50.164;8.012;2023-09-19T09:33:16;6.32;;;1.80;;
76373;SDS011;65197;50.164;8.012;2023-09-19T09:35:51;6.43;;;2.42;;
76373;SDS011;65197;50.164;8.012;2023-09-19T09:38:21;7.60;;;2.58;;
76373;SDS011;65197;50.164;8.012;2023-09-19T09:40:54;5.13;;;2.00;;
76373;SDS011;65197;50.164;8.012;2023-09-19T09:43:27;7.07;;;2.42;;
76373;SDS011;65197;50.164;8.012;2023-09-19T09:46:06;6.70;;;2.47;;
76373;SDS011;65197;50.164;8.012;2023-09-19T09:51:43;7.03;;;2.17;;
76373;SDS011;65197;50.164;8.012;2023-09-19T09:54:18;6.47;;;1.80;;
76373;SDS011;65197;50.164;8.012;2023-09-19T09:56:52;6.00;;;2.35;;
76373;SDS011;65197;50.164;8.012;2023-09-19T09:59:43;5.43;;;2.10;;
76373;SDS011;65197;50.164;8.012;2023-09-19T10:02:17;6.25;;;1.75;;
76373;SDS011;65197;50.164;8.012;2023-09-19T10:04:49;4.88;;;1.85;;
76373;SDS011;65197;50.164;8.012;2023-09-19T10:07:34;8.95;;;2.63;;
76373;SDS011;65197;50.164;8.012;2023-09-19T10:12:42;4.15;;;1.75;;
76373;SDS011;65197;50.164;8.012;2023-09-19T10:15:10;7.32;;;2.03;;
76373;SDS011;65197;50.164;8.012;2023-09-19T10:17:36;5.38;;;1.90;;
76373;SDS011;65197;50.164;8.012;2023-09-19T10:20:05;4.05;;;1.70;;
76373;SDS011;65197;50.164;8.012;2023-09-19T10:22:42;5.88;;;2.20;;
76373;SDS011;65197;50.164;8.012;2023-09-19T10:25:10;5.30;;;1.83;;
76373;SDS011;65197;50.164;8.012;2023-09-19T10:27:37;5.22;;;2.10;;
76373;SDS011;65197;50.164;8.012;2023-09-19T10:30:07;5.18;;;2.00;;
76373;SDS011;65197;50.164;8.012;2023-09-19T10:32:34;7.35;;;2.03;;
76373;SDS011;65197;50.164;8.012;2023-09-19T10:35:02;5.90;;;1.90;;
76373;SDS011;65197;50.164;8.012;2023-09-19T10:37:30;5.97;;;2.70;;
76373;SDS011;65197;50.164;8.012;2023-09-19T10:39:59;7.20;;;2.63;;
76373;SDS011;65197;50.164;8.012;2023-09-19T10:42:24;7.30;;;1.90;;
76373;SDS011;65197;50.164;8.012;2023-09-19T10:44:54;4.78;;;2.15;;
76373;SDS011;65197;50.164;8.012;2023-09-19T10:47:25;6.60;;;1.95;;
76373;SDS011;65197;50.164;8.012;2023-09-19T10:49:51;6.88;;;2.10;;
76373;SDS011;65197;50.164;8.012;2023-09-19T10:52:18;6.45;;;2.20;;
76373;SDS011;65197;50.164;8.012;2023-09-19T10:54:49;5.40;;;1.92;;
76373;SDS011;65197;50.164;8.012;2023-09-19T10:57:25;5.10;;;2.33;;
76373;SDS011;65197;50.164;8.012;2023-09-19T11:00:05;6.18;;;2.00;;
76373;SDS011;65197;50.164;8.012;2023-09-19T11:05:42;6.68;;;2.33;;
76373;SDS011;65197;50.164;8.012;2023-09-19T11:08:07;4.90;;;1.95;;
76373;SDS011;65197;50.164;8.012;2023-09-19T11:13:28;4.07;;;1.80;;
76373;SDS011;65197;50.164;8.012;2023-09-19T11:26:49;7.57;;;1.95;;
76373;SDS011;65197;50.164;8.012;2023-09-19T11:29:29;7.15;;;2.03;;
76373;SDS011;65197;50.164;8.012;2023-09-19T11:31:56;6.00;;;1.90;;
76373;SDS011;65197;50.164;8.012;2023-09-19T11:37:02;4.45;;;1.83;;
76373;SDS011;65197;50.164;8.012;2023-09-19T11:40:06;4.97;;;1.95;;
76373;SDS011;65197;50.164;8.012;2023-09-19T11:42:44;2.85;;;1.83;;
76373;SDS011;65197;50.164;8.012;2023-09-19T11:48:04;4.78;;;1.80;;
76373;SDS011;65197;50.164;8.012;2023-09-19T11:50:31;4.10;;;1.60;;
76373;SDS011;65197;50.164;8.012;2023-09-19T11:52:59;4.15;;;2.00;;
76373;SDS011;65197;50.164;8.012;2023-09-19T11:55:27;5.03;;;2.00;;
76373;SDS011;65197;50.164;8.012;2023-09-19T11:57:56;5.65;;;1.80;;
76373;SDS011;65197;50.164;8.012;2023-09-19T12:00:21;3.97;;;1.65;;
76373;SDS011;65197;50.164;8.012;2023-09-19T12:02:47;6.95;;;1.90;;
76373;SDS011;65197;50.164;8.012;2023-09-19T12:05:19;5.10;;;1.90;;
76373;SDS011;65197;50.164;8.012;2023-09-19T12:07:53;6.10;;;2.20;;
76373;SDS011;65197;50.164;8.012;2023-09-19T12:10:19;5.82;;;1.63;;
76373;SDS011;65197;50.164;8.012;2023-09-19T12:15:24;5.82;;;1.60;;
76373;SDS011;65197;50.164;8.012;2023-09-19T12:17:54;6.65;;;2.08;;
76373;SDS011;65197;50.164;8.012;2023-09-19T12:20:19;8.00;;;1.95;;
76373;SDS011;65197;50.164;8.012;2023-09-19T12:22:46;5.15;;;1.60;;
76373;SDS011;65197;50.164;8.012;2023-09-19T12:25:12;3.67;;;1.58;;
76373;SDS011;65197;50.164;8.012;2023-09-19T12:27:44;5.45;;;2.00;;
76373;SDS011;65197;50.164;8.012;2023-09-19T12:30:17;4.60;;;1.98;;
76373;SDS011;65197;50.164;8.012;2023-09-19T12:32:45;4.95;;;1.80;;
76373;SDS011;65197;50.164;8.012;2023-09-19T12:35:26;5.70;;;2.17;;
76373;SDS011;65197;50.164;8.012;2023-09-19T12:37:55;4.85;;;1.92;;
76373;SDS011;65197;50.164;8.012;2023-09-19T12:40:22;5.25;;;1.70;;
76373;SDS011;65197;50.164;8.012;2023-09-19T12:42:52;4.20;;;1.77;;
76373;SDS011;65197;50.164;8.012;2023-09-19T12:45:20;2.60;;;1.90;;
76373;SDS011;65197;50.164;8.012;2023-09-19T12:51:00;5.03;;;1.77;;
76373;SDS011;65197;50.164;8.012;2023-09-19T12:53:31;3.72;;;1.95;;
76373;SDS011;65197;50.164;8.012;2023-09-19T12:55:59;3.15;;;1.60;;
76373;SDS011;65197;50.164;8.012;2023-09-19T12:58:25;5.18;;;1.92;;
76373;SDS011;65197;50.164;8.012;2023-09-19T13:00:51;5.18;;;1.77;;
76373;SDS011;65197;50.164;8.012;2023-09-19T13:06:00;4.82;;;1.88;;
76373;SDS011;65197;50.164;8.012;2023-09-19T13:08:34;3.97;;;1.63;;
76373;SDS011;65197;50.164;8.012;2023-09-19T13:13:35;5.65;;;1.50;;
76373;SDS011;65197;50.164;8.012;2023-09-19T13:16:02;2.72;;;1.30;;
76373;SDS011;65197;50.164;8.012;2023-09-19T13:18:32;5.18;;;2.60;;
76373;SDS011;65197;50.164;8.012;2023-09-19T13:21:14;6.13;;;1.75;;
76373;SDS011;65197;50.164;8.012;2023-09-19T13:23:52;2.63;;;1.30;;
76373;SDS011;65197;50.164;8.012;2023-09-19T13:26:21;3.92;;;1.30;;
76373;SDS011;65197;50.164;8.012;2023-09-19T13:28:47;3.65;;;1.58;;
76373;SDS011;65197;50.164;8.012;2023-09-19T13:31:14;5.25;;;1.88;;
76373;SDS011;65197;50.164;8.012;2023-09-19T13:33:43;4.47;;;1.73;;
76373;SDS011;65197;50.164;8.012;2023-09-19T13:36:10;5.28;;;1.65;;
76373;SDS011;65197;50.164;8.012;2023-09-19T13:38:37;4.30;;;1.70;;
76373;SDS011;65197;50.164;8.012;2023-09-19T13:41:02;3.92;;;1.25;;
76373;SDS011;65197;50.164;8.012;2023-09-19T13:43:27;4.30;;;1.90;;
76373;SDS011;65197;50.164;8.012;2023-09-19T13:45:54;3.75;;;1.52;;
76373;SDS011;65197;50.164;8.012;2023-09-19T13:48:19;4.07;;;1.77;;
76373;SDS011;65197;50.164;8.012;2023-09-19T13:50:47;5.72;;;1.85;;
76373;SDS011;65197;50.164;8.012;2023-09-19T13:53:13;4.07;;;1.60;;
76373;SDS011;65197;50.164;8.012;2023-09-19T13:55:38;3.63;;;1.35;;
76373;SDS011;65197;50.164;8.012;2023-09-19T13:58:04;7.10;;;2.17;;
76373;SDS011;65197;50.164;8.012;2023-09-19T14:00:31;5.72;;;2.17;;
76373;SDS011;65197;50.164;8.012;2023-09-19T14:02:59;5.20;;;1.80;;
76373;SDS011;65197;50.164;8.012;2023-09-19T14:05:26;5.15;;;1.80;;
76373;SDS011;65197;50.164;8.012;2023-09-19T14:07:53;6.82;;;1.73;;
76373;SDS011;65197;50.164;8.012;2023-09-19T14:10:21;3.80;;;1.60;;
76373;SDS011;65197;50.164;8.012;2023-09-19T14:12:49;2.95;;;1.42;;
76373;SDS011;65197;50.164;8.012;2023-09-19T14:15:14;2.95;;;1.48;;
76373;SDS011;65197;50.164;8.012;2023-09-19T14:17:40;5.22;;;1.70;;
76373;SDS011;65197;50.164;8.012;2023-09-19T14:20:11;3.55;;;1.65;;
76373;SDS011;65197;50.164;8.012;2023-09-19T14:22:36;6.68;;;1.88;;
76373;SDS011;65197;50.164;8.012;2023-09-19T14:25:02;5.15;;;1.70;;
76373;SDS011;65197;50.164;8.012;2023-09-19T14:27:29;3.47;;;1.63;;
76373;SDS011;65197;50.164;8.012;2023-09-19T14:29:55;2.80;;;1.42;;
76373;SDS011;65197;50.164;8.012;2023-09-19T14:32:22;4.95;;;1.63;;
76373;SDS011;65197;50.164;8.012;2023-09-19T14:34:48;4.18;;;1.35;;
76373;SDS011;65197;50.164;8.012;2023-09-19T14:37:14;4.47;;;1.80;;
76373;SDS011;65197;50.164;8.012;2023-09-19T14:39:41;4.88;;;1.90;;
76373;SDS011;65197;50.164;8.012;2023-09-19T14:42:10;3.85;;;1.40;;
76373;SDS011;65197;50.164;8.012;2023-09-19T14:44:36;2.95;;;1.45;;
76373;SDS011;65197;50.164;8.012;2023-09-19T14:47:04;3.90;;;1.65;;
76373;SDS011;65197;50.164;8.012;2023-09-19T14:49:33;5.63;;;1.80;;
76373;SDS011;65197;50.164;8.012;2023-09-19T14:51:59;5.68;;;1.73;;
76373;SDS011;65197;50.164;8.012;2023-09-19T14:54:24;3.08;;;1.40;;
76373;SDS011;65197;50.164;8.012;2023-09-19T14:56:50;6.10;;;1.50;;
76373;SDS011;65197;50.164;8.012;2023-09-19T14:59:21;3.88;;;1.58;;
76373;SDS011;65197;50.164;8.012;2023-09-19T15:01:46;2.63;;;1.20;;
76373;SDS011;65197;50.164;8.012;2023-09-19T15:04:11;4.65;;;1.50;;
76373;SDS011;65197;50.164;8.012;2023-09-19T15:06:37;4.95;;;1.73;;
76373;SDS011;65197;50.164;8.012;2023-09-19T15:09:02;3.05;;;1.30;;
76373;SDS011;65197;50.164;8.012;2023-09-19T15:11:29;4.47;;;1.63;;
76373;SDS011;65197;50.164;8.012;2023-09-19T15:13:55;3.78;;;1.30;;
76373;SDS011;65197;50.164;8.012;2023-09-19T15:16:21;4.13;;;1.58;;
76373;SDS011;65197;50.164;8.012;2023-09-19T15:18:47;4.32;;;1.48;;
76373;SDS011;65197;50.164;8.012;2023-09-19T15:21:13;4.45;;;2.08;;
76373;SDS011;65197;50.164;8.012;2023-09-19T15:23:40;4.72;;;1.83;;
76373;SDS011;65197;50.164;8.012;2023-09-19T15:26:07;3.42;;;1.25;;
76373;SDS011;65197;50.164;8.012;2023-09-19T15:28:33;4.47;;;1.63;;
76373;SDS011;65197;50.164;8.012;2023-09-19T15:33:25;4.13;;;1.40;;
76373;SDS011;65197;50.164;8.012;2023-09-19T15:35:59;3.88;;;1.60;;
76373;SDS011;65197;50.164;8.012;2023-09-19T15:41:28;4.72;;;1.38;;
76373;SDS011;65197;50.164;8.012;2023-09-19T15:43:55;4.22;;;1.50;;
76373;SDS011;65197;50.164;8.012;2023-09-19T15:46:21;3.00;;;1.23;;
76373;SDS011;65197;50.164;8.012;2023-09-19T15:48:48;4.68;;;1.50;;
76373;SDS011;65197;50.164;8.012;2023-09-19T15:51:13;2.90;;;1.35;;
76373;SDS011;65197;50.164;8.012;2023-09-19T15:53:43;4.55;;;1.58;;
76373;SDS011;65197;50.164;8.012;2023-09-19T15:56:09;2.63;;;1.40;;
76373;SDS011;65197;50.164;8.012;2023-09-19T15:58:36;3.75;;;1.48;;
76373;SDS011;65197;50.164;8.012;2023-09-19T16:01:07;7.10;;;2.55;;